Time;durP1;ratioP1;P1;durP2;ratioP2;P2;SDS_P1;SDS_P2;PMS_P1;PMS_P2;Temp;Humidity;BMP_temperature;BMP_pressure;BME280_temperature;BME280_humidity;BME280_pressure;Samples;Min_cycle;Max_cycle;Signal;HPM_P1;HPM_P2
2023/11/13 00:00:12;;;;;;;;;8.00;5.00;;;;;14.37;73.78;100407.78;5058813;28;45442;-63
2023/11/13 00:02:40;;;;;;;;;12.00;5.50;;;;;14.37;73.94;100418.31;5078642;28;45843;-63
2023/11/13 00:05:05;;;;;;;;;10.00;5.00;;;;;14.36;73.60;100397.31;5078675;28;45292;-64
2023/11/13 00:07:31;;;;;;;;;11.50;6.00;;;;;14.36;73.86;100414.00;5079047;28;45284;-63
2023/11/13 00:09:56;;;;;;;;;7.00;7.00;;;;;14.36;73.88;100410.47;5079660;28;67929;-63
2023/11/13 00:12:22;;;;;;;;;13.25;6.00;;;;;14.34;73.42;100397.41;5062147;28;46010;-63
2023/11/13 00:14:47;;;;;;;;;9.00;5.50;;;;;14.33;73.72;100398.34;5075740;28;45525;-63
2023/11/13 00:17:12;;;;;;;;;7.25;6.00;;;;;14.33;73.90;100393.06;5072937;28;61093;-63
2023/11/13 00:19:38;;;;;;;;;11.75;5.00;;;;;14.34;73.77;100376.38;5080519;28;45445;-63
2023/11/13 00:22:04;;;;;;;;;11.00;5.75;;;;;14.32;73.85;100372.94;5059137;28;46318;-63
2023/11/13 00:24:29;;;;;;;;;8.25;3.50;;;;;14.34;73.28;100378.13;5074246;28;45329;-64
2023/11/13 00:26:54;;;;;;;;;11.00;6.00;;;;;14.33;73.47;100385.16;5076526;28;66459;-63
2023/11/13 00:29:20;;;;;;;;;9.00;4.00;;;;;14.33;73.12;100392.22;5057811;28;65374;-63
2023/11/13 00:31:46;;;;;;;;;10.50;4.50;;;;;14.31;73.50;100388.81;5080786;28;46152;-63
2023/11/13 00:34:11;;;;;;;;;9.25;4.25;;;;;14.34;73.05;100380.75;5079969;28;45283;-64
2023/11/13 00:36:36;;;;;;;;;6.50;4.00;;;;;14.33;73.17;100363.28;5073897;28;56868;-64
2023/11/13 00:39:03;;;;;;;;;7.00;5.00;;;;;14.35;72.60;100372.78;5079216;28;45488;-64
2023/11/13 00:41:31;;;;;;;;;13.50;6.25;;;;;14.31;72.59;100370.41;5080408;28;47084;-63
2023/11/13 00:43:57;;;;;;;;;12.50;7.50;;;;;14.33;72.80;100389.59;5055451;28;45329;-63
2023/11/13 00:46:22;;;;;;;;;12.00;5.00;;;;;14.32;72.44;100387.88;5069069;28;45349;-64
2023/11/13 00:48:48;;;;;;;;;11.00;5.00;;;;;14.31;73.06;100396.72;5069051;28;45243;-64
2023/11/13 00:51:13;;;;;;;;;8.50;5.00;;;;;14.29;72.95;100390.66;5068613;28;46069;-65
2023/11/13 00:53:39;;;;;;;;;7.25;3.75;;;;;14.27;73.04;100380.22;5070274;28;45222;-63
2023/11/13 00:56:05;;;;;;;;;9.00;4.00;;;;;14.30;73.11;100379.22;5079540;28;45508;-63
2023/11/13 00:58:35;;;;;;;;;9.50;4.75;;;;;14.29;73.34;100377.47;5080816;28;45583;-64
2023/11/13 01:01:06;;;;;;;;;8.75;3.75;;;;;14.27;73.49;100368.81;5051914;28;47697;-64
2023/11/13 01:03:32;;;;;;;;;5.50;3.50;;;;;14.25;73.33;100363.63;5080188;28;45355;-63
2023/11/13 01:05:59;;;;;;;;;6.00;2.50;;;;;14.22;73.32;100351.47;5072495;28;45530;-63
2023/11/13 01:08:24;;;;;;;;;7.50;3.50;;;;;14.24;73.75;100356.66;5066892;28;45526;-62
2023/11/13 01:10:49;;;;;;;;;12.75;3.75;;;;;14.21;73.69;100348.91;5077976;28;45352;-63
2023/11/13 01:13:15;;;;;;;;;43.75;34.50;;;;;14.21;73.69;100343.66;5078059;28;61088;-64
2023/11/13 01:15:41;;;;;;;;;24.00;10.50;;;;;14.22;74.02;100351.47;5077107;28;45986;-64
2023/11/13 01:18:06;;;;;;;;;11.50;6.00;;;;;14.22;73.83;100345.38;5079795;28;45402;-64
2023/11/13 01:20:32;;;;;;;;;8.00;3.25;;;;;14.20;74.28;100337.53;5057218;28;45967;-64
2023/11/13 01:22:57;;;;;;;;;9.25;4.00;;;;;14.20;74.65;100337.53;5074878;28;45429;-64
2023/11/13 01:25:22;;;;;;;;;8.25;5.00;;;;;14.20;74.40;100324.38;5068307;28;45430;-63
2023/11/13 01:27:48;;;;;;;;;7.75;4.00;;;;;14.20;74.29;100312.97;5078873;28;70918;-63
2023/11/13 01:30:14;;;;;;;;;10.25;6.00;;;;;14.20;74.83;100287.53;5079845;28;46092;-64
2023/11/13 01:32:39;;;;;;;;;8.00;4.75;;;;;14.18;74.88;100278.88;5080300;28;45889;-63
2023/11/13 01:35:05;;;;;;;;;10.25;4.00;;;;;14.17;74.75;100300.00;5077487;28;67835;-62
2023/11/13 01:37:30;;;;;;;;;6.50;4.50;;;;;14.18;74.92;100317.47;5078315;28;46798;-63
2023/11/13 01:39:55;;;;;;;;;6.25;4.75;;;;;14.18;74.96;100310.47;5075846;28;46191;-64
2023/11/13 01:42:21;;;;;;;;;8.50;3.50;;;;;14.17;75.37;100311.38;5074547;28;45653;-65
2023/11/13 01:44:46;;;;;;;;;7.50;4.00;;;;;14.16;75.46;100317.53;5076615;28;69253;-66
2023/11/13 01:47:11;;;;;;;;;16.00;5.00;;;;;14.17;75.22;100307.91;5077853;28;45944;-64
2023/11/13 01:49:37;;;;;;;;;6.50;3.75;;;;;14.14;75.46;100303.63;5079415;28;50244;-63
2023/11/13 01:52:03;;;;;;;;;8.50;3.00;;;;;14.15;75.67;100292.19;5075148;28;45451;-64
2023/11/13 01:54:29;;;;;;;;;12.00;5.00;;;;;14.13;75.66;100286.16;5061099;28;45487;-63
2023/11/13 01:56:55;;;;;;;;;8.00;4.00;;;;;14.12;75.57;100292.31;5073653;28;59957;-63
2023/11/13 01:59:22;;;;;;;;;7.00;3.25;;;;;14.12;75.75;100286.22;5075453;28;47805;-64
2023/11/13 02:01:47;;;;;;;;;7.50;4.00;;;;;14.11;75.75;100295.91;5059807;28;64629;-64
2023/11/13 02:04:13;;;;;;;;;11.25;5.25;;;;;14.11;76.25;100302.91;5078731;28;47983;-64
2023/11/13 02:06:38;;;;;;;;;8.25;4.00;;;;;14.10;75.61;100296.81;5070898;28;54156;-64
2023/11/13 02:09:05;;;;;;;;;9.00;4.00;;;;;14.09;76.30;100295.09;5054364;28;46117;-64
2023/11/13 02:11:30;;;;;;;;;11.50;5.75;;;;;14.09;76.23;100302.13;5078279;28;45898;-64
2023/11/13 02:13:56;;;;;;;;;10.75;3.00;;;;;14.06;76.83;100311.06;5077262;28;45671;-64
2023/11/13 02:16:21;;;;;;;;;8.50;4.00;;;;;14.04;76.76;100305.84;5073131;28;62714;-64
2023/11/13 02:18:47;;;;;;;;;5.00;4.00;;;;;14.02;76.80;100276.16;5073950;28;46109;-64
2023/11/13 02:21:12;;;;;;;;;7.75;3.00;;;;;13.98;78.37;100269.31;5073870;28;45295;-64
2023/11/13 02:23:38;;;;;;;;;6.00;3.00;;;;;13.94;77.73;100282.69;5078571;28;45478;-64
2023/11/13 02:26:13;;;;;;;;;4.75;1.50;;;;;13.92;77.81;100281.94;5056994;28;73387;-63
2023/11/13 02:28:39;;;;;;;;;9.75;3.75;;;;;13.92;77.92;100281.94;5073381;28;46657;-64
2023/11/13 02:31:04;;;;;;;;;5.00;2.50;;;;;13.90;77.45;100271.47;5074340;28;72144;-63
2023/11/13 02:33:30;;;;;;;;;9.25;2.75;;;;;13.89;77.86;100267.13;5078226;28;69288;-64
2023/11/13 02:35:55;;;;;;;;;5.75;3.00;;;;;13.89;77.86;100256.59;5070660;28;45371;-64
2023/11/13 02:38:20;;;;;;;;;7.00;4.50;;;;;13.89;78.18;100246.09;5072748;28;46275;-64
2023/11/13 02:40:46;;;;;;;;;5.75;2.00;;;;;13.89;78.06;100250.50;5078241;28;59935;-64
2023/11/13 02:43:11;;;;;;;;;5.75;4.00;;;;;13.88;78.16;100249.63;5074878;28;66995;-65
2023/11/13 02:45:36;;;;;;;;;6.50;1.25;;;;;13.88;78.21;100240.91;5073740;28;45564;-64
2023/11/13 02:48:02;;;;;;;;;4.00;1.25;;;;;13.87;78.75;100216.38;5076479;28;74014;-64
2023/11/13 02:50:28;;;;;;;;;4.00;2.50;;;;;13.86;78.53;100196.25;5077640;28;58599;-64
2023/11/13 02:52:54;;;;;;;;;7.00;3.50;;;;;13.83;78.48;100205.16;5077184;28;45505;-64
2023/11/13 02:55:19;;;;;;;;;2.50;1.25;;;;;13.83;78.81;100222.72;5076158;28;73236;-65
2023/11/13 02:57:44;;;;;;;;;7.00;2.00;;;;;13.83;78.60;100214.84;5077911;28;45903;-64
2023/11/13 03:00:11;;;;;;;;;9.75;3.00;;;;;13.81;87.09;100225.44;5079128;28;45404;-62
2023/11/13 03:02:37;;;;;;;;;2.50;2.50;;;;;13.86;79.54;100198.88;5076842;28;45542;-62
2023/11/13 03:05:02;;;;;;;;;5.00;2.00;;;;;13.86;79.22;100223.44;5076795;28;45297;-65
2023/11/13 03:07:28;;;;;;;;;3.00;2.75;;;;;13.84;79.20;100214.72;5073919;28;46048;-62
2023/11/13 03:09:56;;;;;;;;;4.25;2.50;;;;;13.86;80.59;100209.41;5074737;28;73623;-62
2023/11/13 03:12:22;;;;;;;;;6.75;4.00;;;;;13.85;79.44;100216.44;5083095;28;45439;-63
2023/11/13 03:14:50;;;;;;;;;5.25;2.00;;;;;13.87;79.67;100197.97;5081124;28;73188;-63
2023/11/13 03:17:16;;;;;;;;;7.00;3.00;;;;;13.89;79.57;100193.47;5060363;28;75441;-63
2023/11/13 03:19:42;;;;;;;;;5.75;2.25;;;;;13.91;79.45;100186.34;5082330;28;45331;-63
2023/11/13 03:22:07;;;;;;;;;5.50;3.25;;;;;13.92;79.52;100180.19;5081477;28;45328;-63
2023/11/13 03:24:32;;;;;;;;;9.50;3.50;;;;;13.94;79.58;100196.72;5078459;28;73283;-63
2023/11/13 03:26:57;;;;;;;;;6.75;5.00;;;;;13.97;79.85;100193.09;5060271;28;66691;-63
2023/11/13 03:29:25;;;;;;;;;10.25;2.25;;;;;13.99;79.40;100180.72;5080798;28;73054;-63
2023/11/13 03:31:50;;;;;;;;;7.50;2.00;;;;;14.02;79.73;100181.44;5072002;28;45328;-64
2023/11/13 03:34:15;;;;;;;;;7.50;3.50;;;;;14.03;80.39;100153.34;5080640;28;45237;-64
2023/11/13 03:36:41;;;;;;;;;7.75;4.00;;;;;14.04;79.56;100149.75;5076911;28;74726;-63
2023/11/13 03:39:06;;;;;;;;;5.75;4.50;;;;;14.05;79.80;100144.41;5078901;28;73689;-64
2023/11/13 03:41:32;;;;;;;;;6.00;2.00;;;;;14.06;79.46;100140.03;5076125;28;66870;-63
2023/11/13 03:44:00;;;;;;;;;7.75;4.00;;;;;14.08;80.09;100134.66;5079091;28;45524;-63
2023/11/13 03:46:25;;;;;;;;;7.25;4.00;;;;;14.10;79.92;100127.56;5077212;28;46186;-63
2023/11/13 03:48:51;;;;;;;;;9.75;4.00;;;;;14.11;80.58;100129.25;5078904;28;46149;-63
2023/11/13 03:51:16;;;;;;;;;7.25;3.75;;;;;14.13;80.06;100124.75;5078593;28;69452;-63
2023/11/13 03:53:41;;;;;;;;;8.00;3.50;;;;;14.15;79.91;100129.03;5080302;28;72131;-63
2023/11/13 03:56:07;;;;;;;;;10.75;4.00;;;;;14.19;80.16;100129.72;5074352;28;46117;-63
2023/11/13 03:58:33;;;;;;;;;6.00;3.25;;;;;14.20;79.77;100123.50;5060238;28;47480;-64
2023/11/13 04:00:58;;;;;;;;;9.50;5.00;;;;;14.24;80.37;100127.69;5081255;28;45665;-63
2023/11/13 04:03:23;;;;;;;;;5.75;4.00;;;;;14.28;80.08;100118.69;5079862;28;71281;-64
2023/11/13 04:05:49;;;;;;;;;6.50;5.25;;;;;14.32;79.88;100108.88;5074538;28;74564;-63
2023/11/13 04:08:14;;;;;;;;;8.50;6.00;;;;;14.34;80.20;100114.91;5080146;28;73314;-63
2023/11/13 04:10:40;;;;;;;;;9.00;4.50;;;;;14.36;80.43;100106.00;5078589;28;68308;-63
2023/11/13 04:13:05;;;;;;;;;6.25;2.75;;;;;14.38;80.66;100106.75;5077426;28;45255;-65
2023/11/13 04:15:30;;;;;;;;;4.00;4.00;;;;;14.40;80.21;100104.91;5078091;28;67023;-63
2023/11/13 04:17:56;;;;;;;;;8.50;4.25;;;;;14.41;80.29;100101.34;5080867;28;45177;-63
2023/11/13 04:20:21;;;;;;;;;6.00;4.00;;;;;14.45;80.29;100099.41;5074682;28;45439;-63
2023/11/13 04:22:48;;;;;;;;;6.75;4.75;;;;;14.46;80.45;100093.19;5080769;28;45402;-64
2023/11/13 04:25:14;;;;;;;;;8.25;4.75;;;;;14.50;80.57;100089.47;5068656;28;46129;-63
2023/11/13 04:27:40;;;;;;;;;3.25;3.00;;;;;14.52;80.46;100092.88;5075533;28;45135;-64
2023/11/13 04:30:07;;;;;;;;;9.00;5.00;;;;;14.55;80.79;100092.69;5066377;28;45617;-63
2023/11/13 04:32:32;;;;;;;;;10.00;4.00;;;;;14.57;80.58;100074.16;5080664;28;45463;-64
2023/11/13 04:34:57;;;;;;;;;7.00;4.50;;;;;14.59;80.59;100070.56;5079181;28;75668;-63
2023/11/13 04:37:23;;;;;;;;;11.00;4.25;;;;;14.63;80.64;100080.94;5076717;28;45487;-64
2023/11/13 04:39:48;;;;;;;;;7.50;4.25;;;;;14.65;80.63;100084.34;5076504;28;68310;-63
2023/11/13 04:42:14;;;;;;;;;7.00;4.00;;;;;14.67;80.50;100059.59;5078093;28;68997;-63
2023/11/13 04:44:39;;;;;;;;;3.25;3.25;;;;;14.70;80.60;100054.19;5060701;28;47182;-63
2023/11/13 04:47:06;;;;;;;;;7.00;5.00;;;;;14.74;80.73;100055.69;5079150;28;72201;-63
2023/11/13 04:49:31;;;;;;;;;3.75;3.25;;;;;14.76;80.58;100051.19;5077586;28;45277;-63
2023/11/13 04:51:56;;;;;;;;;8.50;4.25;;;;;14.81;80.78;100051.78;5078012;28;65186;-63
2023/11/13 04:54:21;;;;;;;;;6.50;3.00;;;;;14.86;81.38;100069.16;5076865;28;75629;-63
2023/11/13 04:56:47;;;;;;;;;7.75;4.75;;;;;14.89;80.88;100068.97;5072128;28;72192;-64
2023/11/13 04:59:12;;;;;;;;;6.50;4.75;;;;;14.92;81.11;100074.06;5075984;28;69075;-64
2023/11/13 05:01:39;;;;;;;;;4.50;3.50;;;;;14.91;80.48;100067.94;5080626;28;45215;-63
2023/11/13 05:04:08;;;;;;;;;5.25;2.00;;;;;14.94;81.29;100088.88;5080207;28;46166;-63
2023/11/13 05:06:35;;;;;;;;;4.50;3.00;;;;;14.96;80.83;100067.69;5076753;28;51903;-64
2023/11/13 05:09:00;;;;;;;;;3.75;3.00;;;;;14.97;80.95;100062.31;5079221;28;45352;-63
2023/11/13 05:11:26;;;;;;;;;2.50;2.50;;;;;15.02;80.72;100061.25;5059606;28;45316;-64
2023/11/13 05:13:52;;;;;;;;;4.00;4.00;;;;;15.05;81.16;100047.88;5058190;28;56456;-63
2023/11/13 05:16:22;;;;;;;;;10.50;3.00;;;;;15.09;80.53;100049.41;5072840;28;45275;-64
2023/11/13 05:18:47;;;;;;;;;4.75;3.00;;;;;15.11;80.81;100022.03;5080237;28;45371;-64
2023/11/13 05:21:13;;;;;;;;;7.50;2.75;;;;;15.15;80.73;100023.53;5079208;28;45445;-63
2023/11/13 05:23:39;;;;;;;;;5.50;3.50;;;;;15.18;80.99;100027.78;5079013;28;46358;-63
2023/11/13 05:26:05;;;;;;;;;5.75;4.00;;;;;15.19;80.64;100016.28;5057324;28;62173;-63
2023/11/13 05:28:31;;;;;;;;;9.75;4.00;;;;;15.22;80.48;100020.56;5056829;28;45333;-65
2023/11/13 05:30:56;;;;;;;;;8.75;4.50;;;;;15.23;80.71;100024.88;5074578;28;61267;-64
2023/11/13 05:33:21;;;;;;;;;8.00;3.25;;;;;15.26;80.66;100037.88;5078530;28;75586;-63
2023/11/13 05:35:46;;;;;;;;;6.25;3.25;;;;;15.27;80.79;100047.50;5075535;28;73319;-64
2023/11/13 05:38:13;;;;;;;;;6.50;3.50;;;;;15.28;81.01;100043.91;5052402;28;68282;-64
2023/11/13 05:40:38;;;;;;;;;8.00;5.00;;;;;15.31;80.83;100049.03;5040462;28;45367;-63
2023/11/13 05:43:04;;;;;;;;;7.25;3.25;;;;;15.32;80.61;100042.81;5075464;28;71530;-65
2023/11/13 05:45:29;;;;;;;;;4.50;3.00;;;;;15.33;80.28;100033.94;5076890;28;45270;-65
2023/11/13 05:47:54;;;;;;;;;5.50;3.75;;;;;15.35;80.56;100037.34;5075963;28;69474;-65
2023/11/13 05:50:20;;;;;;;;;5.50;3.50;;;;;15.37;80.37;100035.50;5076177;28;72126;-65
2023/11/13 05:52:47;;;;;;;;;8.00;3.50;;;;;15.38;80.58;100045.94;5060714;28;57658;-64
2023/11/13 05:55:12;;;;;;;;;6.00;3.75;;;;;15.41;80.62;100060.72;5076515;28;45553;-63
2023/11/13 05:57:38;;;;;;;;;10.00;6.00;;;;;15.41;80.62;100052.81;5075482;28;45537;-64
2023/11/13 06:00:04;;;;;;;;;6.75;4.75;;;;;15.46;80.22;100061.31;5078729;28;45462;-64
2023/11/13 06:02:29;;;;;;;;;6.00;4.00;;;;;15.48;80.64;100064.72;5076258;28;46272;-64
2023/11/13 06:04:55;;;;;;;;;3.75;3.00;;;;;15.50;80.46;100056.72;5078220;28;66272;-64
2023/11/13 06:07:20;;;;;;;;;4.75;3.25;;;;;15.51;80.38;100054.00;5075828;28;69480;-64
2023/11/13 06:09:45;;;;;;;;;5.75;4.75;;;;;15.55;80.31;100065.22;5075853;28;72032;-64
2023/11/13 06:12:11;;;;;;;;;5.75;4.00;;;;;15.56;80.34;100069.53;5077630;28;76551;-64
2023/11/13 06:14:38;;;;;;;;;7.00;3.00;;;;;15.55;81.02;100058.13;5077158;28;45396;-64
2023/11/13 06:17:04;;;;;;;;;5.25;3.75;;;;;15.58;80.60;100046.53;5075852;28;45453;-64
2023/11/13 06:19:29;;;;;;;;;6.00;3.00;;;;;15.59;80.57;100034.22;5079343;28;45256;-64
2023/11/13 06:21:55;;;;;;;;;6.75;3.00;;;;;15.60;80.72;100020.97;5078031;28;75900;-63
2023/11/13 06:24:20;;;;;;;;;8.25;3.75;;;;;15.62;80.20;100010.31;5067684;28;45400;-64
2023/11/13 06:26:46;;;;;;;;;7.75;4.25;;;;;15.64;80.46;99995.25;5073135;28;45442;-64
2023/11/13 06:29:11;;;;;;;;;7.00;4.00;;;;;15.67;80.36;99987.13;5069722;28;73142;-64
2023/11/13 06:31:38;;;;;;;;;4.50;3.25;;;;;15.67;80.41;99987.13;5056985;28;74355;-64
2023/11/13 06:34:03;;;;;;;;;5.75;2.50;;;;;15.70;80.16;99987.78;5059981;28;46135;-63
2023/11/13 06:36:30;;;;;;;;;5.50;3.00;;;;;15.74;79.86;99978.81;5057912;28;45500;-62
2023/11/13 06:38:56;;;;;;;;;6.00;5.00;;;;;15.78;79.82;99997.09;5074569;28;45739;-61
2023/11/13 06:41:21;;;;;;;;;7.75;4.50;;;;;15.80;80.01;99998.69;5073691;28;46184;-62
2023/11/13 06:43:47;;;;;;;;;7.75;4.00;;;;;15.83;79.90;100003.78;5048236;28;45276;-64
2023/11/13 06:46:12;;;;;;;;;6.00;4.50;;;;;15.85;79.53;100012.44;5078008;28;69374;-64
2023/11/13 06:48:37;;;;;;;;;7.00;3.50;;;;;15.90;80.03;100014.78;5081133;28;47068;-64
2023/11/13 06:51:03;;;;;;;;;5.75;5.00;;;;;15.92;79.94;100018.22;5045744;28;46691;-65
2023/11/13 06:53:29;;;;;;;;;6.50;4.75;;;;;15.93;79.90;100028.66;5080688;28;45371;-65
2023/11/13 06:55:55;;;;;;;;;9.50;4.25;;;;;15.98;79.57;100036.28;5078531;28;45131;-76
2023/11/13 06:58:22;;;;;;;;;8.00;4.25;;;;;15.99;79.68;100037.13;5077193;28;45508;-65
2023/11/13 07:00:49;;;;;;;;;8.00;4.25;;;;;16.00;79.79;100034.41;5078413;28;45437;-68
2023/11/13 07:03:14;;;;;;;;;5.50;3.75;;;;;16.01;79.39;100038.75;5081174;28;45642;-68
2023/11/13 07:05:41;;;;;;;;;6.00;3.50;;;;;16.03;79.65;100047.41;5055609;28;45400;-68
2023/11/13 07:08:06;;;;;;;;;7.00;4.00;;;;;16.04;79.94;100042.97;5078247;28;45271;-66
2023/11/13 07:10:34;;;;;;;;;5.75;2.75;;;;;16.05;79.83;100031.50;5079143;28;46183;-68
2023/11/13 07:13:00;;;;;;;;;3.75;3.75;;;;;16.05;80.04;100021.78;5063866;28;45249;-68
2023/11/13 07:15:25;;;;;;;;;6.75;3.25;;;;;16.02;79.80;100013.19;5055054;28;45669;-67
2023/11/13 07:17:50;;;;;;;;;4.75;3.75;;;;;16.09;80.02;100019.78;5058333;28;72877;-66
2023/11/13 07:20:18;;;;;;;;;4.00;3.50;;;;;16.09;79.72;100028.56;5079518;28;73363;-67
2023/11/13 07:22:50;;;;;;;;;7.00;3.00;;;;;16.10;79.99;100025.00;5082082;28;45288;-66
2023/11/13 07:25:15;;;;;;;;;4.75;2.00;;;;;16.10;80.32;100017.06;5067197;28;45663;-67
2023/11/13 07:27:40;;;;;;;;;6.25;2.50;;;;;16.11;80.32;100017.91;5081043;28;45449;-68
2023/11/13 07:30:07;;;;;;;;;2.25;0.50;;;;;16.12;80.22;100015.19;5081239;28;46173;-66
2023/11/13 07:32:32;;;;;;;;;5.25;3.25;;;;;16.13;81.19;100018.69;5079434;28;45794;-66
2023/11/13 07:34:57;;;;;;;;;3.50;3.50;;;;;16.14;81.60;100023.00;5079501;28;45682;-67
2023/11/13 07:37:23;;;;;;;;;6.00;4.75;;;;;16.11;81.56;100013.50;5078183;28;71752;-67
2023/11/13 07:39:52;;;;;;;;;5.00;2.75;;;;;16.11;81.43;100021.41;5050991;28;45427;-70
2023/11/13 07:42:17;;;;;;;;;4.25;3.00;;;;;16.12;81.45;100027.53;5079222;28;45859;-66
2023/11/13 07:44:49;;;;;;;;;6.25;2.50;;;;;16.12;81.55;100016.97;5080527;28;45671;-71
2023/11/13 07:47:15;;;;;;;;;3.00;3.00;;;;;16.13;82.17;100027.44;5057788;28;45490;-66
2023/11/13 07:49:43;;;;;;;;;4.75;3.00;;;;;16.10;83.24;100029.44;5058209;28;47090;-66
2023/11/13 07:52:09;;;;;;;;;5.50;3.25;;;;;16.11;82.90;100028.47;5074470;28;45339;-66
2023/11/13 07:54:35;;;;;;;;;5.50;3.25;;;;;16.11;81.85;100034.63;5066694;28;45174;-66
2023/11/13 07:57:00;;;;;;;;;2.75;2.25;;;;;16.13;81.94;100031.88;5079840;28;45327;-67
2023/11/13 07:59:26;;;;;;;;;5.00;1.75;;;;;16.14;82.29;100036.19;5059419;28;47519;-67
2023/11/13 08:01:51;;;;;;;;;1.25;1.25;;;;;16.15;82.49;100035.28;5056061;28;45350;-65
2023/11/13 08:04:17;;;;;;;;;1.75;1.75;;;;;16.15;82.16;100035.28;5080265;28;45476;-65
2023/11/13 08:06:44;;;;;;;;;2.00;2.00;;;;;16.17;82.31;100030.75;5075833;28;45481;-65
2023/11/13 08:09:09;;;;;;;;;3.25;2.00;;;;;16.17;83.70;100028.09;5079128;28;45512;-65
2023/11/13 08:11:35;;;;;;;;;3.00;2.00;;;;;16.16;83.57;100015.00;5079538;28;73222;-65
2023/11/13 08:14:03;;;;;;;;;1.25;1.25;;;;;16.16;82.67;100018.47;5079226;28;45379;-65
2023/11/13 08:16:31;;;;;;;;;2.50;2.00;;;;;16.18;82.05;100011.31;5061285;28;45478;-65
2023/11/13 08:18:56;;;;;;;;;4.25;2.00;;;;;16.20;81.71;100006.81;5079202;28;46155;-65
2023/11/13 08:21:21;;;;;;;;;4.50;1.50;;;;;16.24;81.80;100007.47;5070965;28;45482;-65
2023/11/13 08:23:47;;;;;;;;;4.75;3.00;;;;;16.23;81.65;100006.59;5058713;28;45285;-65
2023/11/13 08:26:14;;;;;;;;;3.50;1.50;;;;;16.30;81.73;100021.09;5076461;28;45351;-65
2023/11/13 08:28:39;;;;;;;;;4.00;3.25;;;;;16.31;81.73;100003.50;5070036;28;46062;-67
2023/11/13 08:31:05;;;;;;;;;1.50;1.50;;;;;16.31;82.13;100006.97;5079878;28;45384;-69
2023/11/13 08:33:30;;;;;;;;;2.50;1.75;;;;;16.32;81.77;100000.75;5076645;28;45499;-67
2023/11/13 08:35:59;;;;;;;;;2.50;1.50;;;;;16.33;81.89;100005.06;5076521;28;45268;-68
2023/11/13 08:38:25;;;;;;;;;3.50;2.00;;;;;16.32;81.81;100008.69;5070268;28;45402;-67
2023/11/13 08:40:52;;;;;;;;;0.00;0.00;;;;;16.32;81.74;100011.31;5058485;28;46573;-67
2023/11/13 08:43:18;;;;;;;;;3.25;1.25;;;;;16.36;81.63;100029.59;5060912;28;45341;-67
2023/11/13 08:45:44;;;;;;;;;2.50;1.50;;;;;16.37;81.40;100012.81;5062203;28;52700;-69
2023/11/13 08:48:10;;;;;;;;;2.25;2.25;;;;;16.41;81.13;100003.75;5062940;28;45538;-67
2023/11/13 08:50:36;;;;;;;;;4.00;0.75;;;;;16.46;81.10;100007.78;5080310;28;45642;-67
2023/11/13 08:53:02;;;;;;;;;2.50;1.50;;;;;16.48;80.87;99992.72;5062791;28;45336;-67
2023/11/13 08:55:27;;;;;;;;;2.50;1.00;;;;;16.54;80.72;99995.88;5063531;28;60414;-67
2023/11/13 08:57:53;;;;;;;;;1.75;1.25;;;;;16.55;80.33;99994.94;5042867;28;46577;-69
2023/11/13 09:00:20;;;;;;;;;2.75;1.00;;;;;16.58;80.31;99984.19;5079633;28;45162;-67
2023/11/13 09:02:49;;;;;;;;;4.00;2.00;;;;;16.60;80.19;99992.88;5067430;28;45467;-67
2023/11/13 09:05:15;;;;;;;;;3.50;2.00;;;;;16.60;80.04;99992.88;5073643;28;51000;-68
2023/11/13 09:07:42;;;;;;;;;4.25;1.00;;;;;16.60;80.02;100001.63;5072657;28;45422;-65
2023/11/13 09:10:11;;;;;;;;;2.00;0.75;;;;;16.58;79.77;99992.97;5079327;28;45328;-65
2023/11/13 09:12:38;;;;;;;;;3.00;1.25;;;;;16.63;79.68;99982.94;5066930;28;45428;-68
2023/11/13 09:15:11;;;;;;;;;31.75;23.00;;;;;16.65;79.77;99980.22;5078063;28;46093;-68
2023/11/13 09:17:43;;;;;;;;;10.00;9.00;;;;;16.67;79.56;99981.78;5058547;28;47303;-68
2023/11/13 09:20:09;;;;;;;;;2.00;2.00;;;;;16.71;79.65;99985.09;5072065;28;45225;-68
2023/11/13 09:22:35;;;;;;;;;3.00;2.00;;;;;16.75;79.21;99970.75;5066423;28;45798;-68
2023/11/13 09:25:00;;;;;;;;;3.75;1.00;;;;;16.78;79.13;99949.38;5078530;28;73354;-68
2023/11/13 09:27:26;;;;;;;;;3.00;0.50;;;;;16.85;79.18;99952.50;5073063;28;46125;-68
2023/11/13 09:29:51;;;;;;;;;1.50;1.50;;;;;16.86;79.38;99952.41;5070109;28;71178;-64
2023/11/13 09:32:19;;;;;;;;;1.75;1.75;;;;;16.86;78.95;99956.88;5079133;28;65859;-70
2023/11/13 09:34:47;;;;;;;;;1.75;1.75;;;;;16.84;78.79;99953.47;5067598;28;46055;-68
2023/11/13 09:37:15;;;;;;;;;2.00;1.00;;;;;16.83;78.75;99935.88;5071616;28;46331;-68
2023/11/13 09:39:42;;;;;;;;;2.00;2.00;;;;;16.83;78.69;99938.53;5066825;28;45561;-68
2023/11/13 09:42:16;;;;;;;;;0.50;0.50;;;;;16.84;78.71;99949.03;5072492;28;45511;-67
2023/11/13 09:44:43;;;;;;;;;2.75;2.00;;;;;16.85;78.67;99960.44;5074023;28;45477;-67
2023/11/13 09:47:10;;;;;;;;;1.75;1.75;;;;;16.81;78.59;99962.41;5043649;28;46276;-65
2023/11/13 09:49:41;;;;;;;;;4.00;1.50;;;;;16.79;78.53;99972.25;5076994;28;45393;-65
2023/11/13 09:52:07;;;;;;;;;1.50;0.75;;;;;16.78;78.58;99972.34;5074037;28;45264;-64
2023/11/13 09:54:33;;;;;;;;;1.75;1.25;;;;;16.78;78.59;99972.34;5054208;28;56397;-64
2023/11/13 09:57:00;;;;;;;;;4.00;2.50;;;;;16.75;78.47;99964.59;5073850;28;66945;-64
2023/11/13 09:59:29;;;;;;;;;4.50;1.25;;;;;16.76;78.58;99982.16;5056700;28;45328;-64
2023/11/13 10:01:54;;;;;;;;;2.25;2.00;;;;;16.79;78.42;99995.19;5075977;28;45388;-64
2023/11/13 10:04:19;;;;;;;;;1.75;1.75;;;;;16.79;78.40;99984.59;5051966;28;45325;-64
2023/11/13 10:06:52;;;;;;;;;2.50;1.50;;;;;16.79;78.26;99980.16;5070492;28;45978;-64
2023/11/13 10:09:21;;;;;;;;;2.00;1.25;;;;;16.82;78.34;99977.34;5050301;28;45589;-64
2023/11/13 10:11:48;;;;;;;;;1.25;1.25;;;;;16.86;78.29;99985.94;5049038;28;45353;-64
2023/11/13 10:14:18;;;;;;;;;3.75;2.00;;;;;16.91;78.23;99975.91;5068305;28;46202;-64
2023/11/13 10:16:53;;;;;;;;;3.25;0.75;;;;;16.95;78.18;99963.34;5051155;28;45532;-64
2023/11/13 10:19:19;;;;;;;;;3.00;3.00;;;;;16.95;78.01;99966.81;5081004;28;45626;-64
2023/11/13 10:21:44;;;;;;;;;3.50;3.25;;;;;17.00;77.88;99982.41;5077867;28;63903;-65
2023/11/13 10:24:15;;;;;;;;;2.25;1.75;;;;;17.03;78.18;99972.47;5081854;28;45174;-65
2023/11/13 10:26:41;;;;;;;;;1.75;0.00;;;;;17.02;78.04;99968.13;5055777;28;46331;-68
2023/11/13 10:29:26;;;;;;;;;3.75;1.75;;;;;17.06;78.08;99982.81;5072281;28;45246;-65
2023/11/13 10:31:55;;;;;;;;;0.75;0.75;;;;;17.08;78.02;99975.63;5073256;28;45320;-65
2023/11/13 10:34:21;;;;;;;;;2.50;1.75;;;;;17.13;77.88;99972.69;5063145;28;45438;-65
2023/11/13 10:37:19;;;;;;;;;1.00;1.00;;;;;17.15;77.87;99960.22;5067312;28;45434;-65
2023/11/13 10:39:44;;;;;;;;;2.50;2.50;;;;;17.17;77.54;99962.75;5024121;28;45378;-65
2023/11/13 10:42:23;;;;;;;;;3.00;2.50;;;;;17.18;77.43;99962.66;5060534;28;45582;-65
2023/11/13 10:44:53;;;;;;;;;5.00;1.50;;;;;17.19;77.40;99964.34;5057202;28;45827;-65
2023/11/13 10:47:26;;;;;;;;;4.00;2.00;;;;;17.17;77.25;99960.94;5074581;28;45484;-66
2023/11/13 10:49:53;;;;;;;;;2.75;1.25;;;;;17.21;77.48;99958.94;5082491;28;45824;-67
2023/11/13 10:52:23;;;;;;;;;2.25;2.00;;;;;17.23;77.35;99954.44;5060544;28;45407;-67
2023/11/13 10:54:50;;;;;;;;;5.50;2.50;;;;;17.24;77.20;99954.28;5060428;28;45521;-68
2023/11/13 10:57:20;;;;;;;;;3.00;1.25;;;;;17.25;77.34;99955.16;5080604;28;46053;-65
2023/11/13 10:59:46;;;;;;;;;1.00;0.75;;;;;17.26;77.38;99954.19;5079876;28;45515;-68
2023/11/13 11:02:24;;;;;;;;;1.75;1.00;;;;;17.26;77.57;99956.84;5076199;28;45295;-67
2023/11/13 11:04:53;;;;;;;;;5.50;1.50;;;;;17.28;77.38;99954.94;5078366;28;45235;-69
2023/11/13 11:07:20;;;;;;;;;2.50;2.00;;;;;17.28;77.46;99952.28;5046375;28;47126;-66
2023/11/13 11:09:45;;;;;;;;;2.25;1.50;;;;;17.29;77.50;99953.16;5056816;28;46003;-67
2023/11/13 11:12:11;;;;;;;;;2.00;1.75;;;;;17.27;77.88;99947.97;5063122;28;45471;-67
2023/11/13 11:15:05;;;;;;;;;3.00;1.75;;;;;17.29;77.83;99948.72;5077859;28;53918;-67
2023/11/13 11:17:36;;;;;;;;;3.00;1.75;;;;;17.30;78.16;99945.13;5055835;28;46355;-73
2023/11/13 11:20:08;;;;;;;;;3.00;1.75;;;;;17.31;78.29;99936.22;5047574;28;45486;-69
2023/11/13 11:22:49;;;;;;;;;1.25;1.00;;;;;17.30;78.40;99941.59;5057550;28;45391;-72